sensor_id;sensor_type;location;lat;lon;timestamp;pressure;altitude;pressure_sealevel;temperature;humidity
38718;BME280;24468;52.128;9.278;2023-02-17T00:00:30;101014.56;;;8.27;100.00
38718;BME280;24468;52.128;9.278;2023-02-17T00:02:56;100998.09;;;8.40;100.00
38718;BME280;24468;52.128;9.278;2023-02-17T00:05:23;100998.09;;;8.40;100.00
38718;BME280;24468;52.128;9.278;2023-02-17T00:07:49;101008.91;;;8.37;100.00
38718;BME280;24468;52.128;9.278;2023-02-17T00:10:15;101000.94;;;8.34;100.00
38718;BME280;24468;52.128;9.278;2023-02-17T00:12:41;101000.75;;;8.42;100.00
38718;BME280;24468;52.128;9.278;2023-02-17T00:15:07;101004.31;;;8.42;100.00
38718;BME280;24468;52.128;9.278;2023-02-17T00:17:33;100996.91;;;8.51;100.00
38718;BME280;24468;52.128;9.278;2023-02-17T00:19:58;100995.00;;;8.54;100.00
38718;BME280;24468;52.128;9.278;2023-02-17T00:22:24;100989.44;;;8.60;100.00
38718;BME280;24468;52.128;9.278;2023-02-17T00:24:49;100991.13;;;8.64;100.00
38718;BME280;24468;52.128;9.278;2023-02-17T00:27:15;100992.66;;;8.73;100.00
38718;BME280;24468;52.128;9.278;2023-02-17T00:29:41;100993.41;;;8.78;100.00
38718;BME280;24468;52.128;9.278;2023-02-17T00:32:07;100994.44;;;9.04;100.00
38718;BME280;24468;52.128;9.278;2023-02-17T00:34:34;100988.78;;;8.83;100.00
38718;BME280;24468;52.128;9.278;2023-02-17T00:37:00;100975.00;;;8.94;100.00
38718;BME280;24468;52.128;9.278;2023-02-17T00:39:26;100983.47;;;9.10;100.00
38718;BME280;24468;52.128;9.278;2023-02-17T00:41:51;100987.09;;;9.09;100.00
38718;BME280;24468;52.128;9.278;2023-02-17T00:44:20;100976.44;;;9.06;100.00
38718;BME280;24468;52.128;9.278;2023-02-17T00:46:47;100977.81;;;9.19;100.00
38718;BME280;24468;52.128;9.278;2023-02-17T00:49:22;100984.22;;;9.15;100.00
38718;BME280;24468;52.128;9.278;2023-02-17T00:51:49;100981.19;;;9.26;100.00
38718;BME280;24468;52.128;9.278;2023-02-17T00:54:15;100977.50;;;9.28;100.00
38718;BME280;24468;52.128;9.278;2023-02-17T00:56:41;100966.94;;;9.22;100.00
38718;BME280;24468;52.128;9.278;2023-02-17T00:59:07;100977.13;;;9.41;100.00
38718;BME280;24468;52.128;9.278;2023-02-17T01:01:33;100979.19;;;9.32;100.00
38718;BME280;24468;52.128;9.278;2023-02-17T01:03:59;100981.03;;;9.30;100.00
38718;BME280;24468;52.128;9.278;2023-02-17T01:06:32;100969.84;;;9.43;100.00
38718;BME280;24468;52.128;9.278;2023-02-17T01:08:59;100977.66;;;9.52;100.00
38718;BME280;24468;52.128;9.278;2023-02-17T01:11:28;100975.06;;;9.49;100.00
38718;BME280;24468;52.128;9.278;2023-02-17T01:13:55;100962.41;;;9.51;100.00
38718;BME280;24468;52.128;9.278;2023-02-17T01:16:30;100966.41;;;9.66;100.00
38718;BME280;24468;52.128;9.278;2023-02-17T01:19:05;100960.97;;;9.67;100.00
38718;BME280;24468;52.128;9.278;2023-02-17T01:21:31;100950.81;;;9.49;100.00
38718;BME280;24468;52.128;9.278;2023-02-17T01:24:00;100955.56;;;9.67;100.00
38718;BME280;24468;52.128;9.278;2023-02-17T01:26:27;100943.50;;;9.52;100.00
38718;BME280;24468;52.128;9.278;2023-02-17T01:28:54;100946.50;;;9.70;100.00
38718;BME280;24468;52.128;9.278;2023-02-17T01:31:21;100942.53;;;9.55;100.00
38718;BME280;24468;52.128;9.278;2023-02-17T01:33:48;100938.13;;;9.52;100.00
38718;BME280;24468;52.128;9.278;2023-02-17T01:36:16;100931.69;;;9.56;100.00
38718;BME280;24468;52.128;9.278;2023-02-17T01:38:42;100935.97;;;9.62;100.00
38718;BME280;24468;52.128;9.278;2023-02-17T01:41:09;100937.53;;;9.69;100.00
38718;BME280;24468;52.128;9.278;2023-02-17T01:43:35;100922.97;;;9.75;100.00
38718;BME280;24468;52.128;9.278;2023-02-17T01:46:03;100929.50;;;9.68;100.00
38718;BME280;24468;52.128;9.278;2023-02-17T01:48:47;100910.13;;;9.83;100.00
38718;BME280;24468;52.128;9.278;2023-02-17T01:51:22;100912.69;;;9.86;100.00
38718;BME280;24468;52.128;9.278;2023-02-17T01:54:12;100912.44;;;9.94;100.00
38718;BME280;24468;52.128;9.278;2023-02-17T01:56:42;100905.59;;;9.84;100.00
38718;BME280;24468;52.128;9.278;2023-02-17T01:59:19;100896.97;;;9.99;100.00
38718;BME280;24468;52.128;9.278;2023-02-17T02:01:47;100893.13;;;9.81;100.00
38718;BME280;24468;52.128;9.278;2023-02-17T02:04:18;100885.31;;;9.73;100.00
38718;BME280;24468;52.128;9.278;2023-02-17T02:06:45;100896.38;;;9.66;100.00
38718;BME280;24468;52.128;9.278;2023-02-17T02:09:21;100891.72;;;9.71;100.00
38718;BME280;24468;52.128;9.278;2023-02-17T02:11:51;100877.03;;;9.79;100.00
38718;BME280;24468;52.128;9.278;2023-02-17T02:14:18;100876.53;;;9.93;100.00
38718;BME280;24468;52.128;9.278;2023-02-17T02:17:11;100872.97;;;9.93;100.00
38718;BME280;24468;52.128;9.278;2023-02-17T02:29:28;100865.03;;;10.12;100.00
38718;BME280;24468;52.128;9.278;2023-02-17T02:32:42;100863.25;;;10.12;100.00
38718;BME280;24468;52.128;9.278;2023-02-17T02:35:47;100863.41;;;10.08;100.00
38718;BME280;24468;52.128;9.278;2023-02-17T02:39:02;100857.38;;;10.01;100.00
38718;BME280;24468;52.128;9.278;2023-02-17T02:41:36;100860.25;;;10.20;100.00
38718;BME280;24468;52.128;9.278;2023-02-17T02:44:06;100867.22;;;10.02;100.00
38718;BME280;24468;52.128;9.278;2023-02-17T02:46:33;100865.16;;;10.09;100.00
38718;BME280;24468;52.128;9.278;2023-02-17T02:48:59;100864.34;;;10.07;100.00
38718;BME280;24468;52.128;9.278;2023-02-17T02:51:45;100852.38;;;9.90;100.00
38718;BME280;24468;52.128;9.278;2023-02-17T02:54:27;100858.78;;;10.11;100.00
38718;BME280;24468;52.128;9.278;2023-02-17T02:57:33;100852.28;;;10.17;100.00
38718;BME280;24468;52.128;9.278;2023-02-17T03:05:56;100838.78;;;10.17;100.00
38718;BME280;24468;52.128;9.278;2023-02-17T03:08:58;100838.03;;;10.13;100.00
38718;BME280;24468;52.128;9.278;2023-02-17T03:11:25;100831.16;;;10.30;100.00
38718;BME280;24468;52.128;9.278;2023-02-17T03:14:03;100821.63;;;10.19;100.00
38718;BME280;24468;52.128;9.278;2023-02-17T03:16:29;100819.78;;;10.20;100.00
38718;BME280;24468;52.128;9.278;2023-02-17T03:18:55;100818.38;;;10.35;100.00
38718;BME280;24468;52.128;9.278;2023-02-17T03:21:21;100809.78;;;10.47;100.00
38718;BME280;24468;52.128;9.278;2023-02-17T03:23:46;100817.09;;;10.20;100.00
38718;BME280;24468;52.128;9.278;2023-02-17T03:26:12;100809.22;;;10.15;100.00
38718;BME280;24468;52.128;9.278;2023-02-17T03:28:37;100792.16;;;10.15;100.00
38718;BME280;24468;52.128;9.278;2023-02-17T03:31:03;100794.16;;;10.10;100.00
38718;BME280;24468;52.128;9.278;2023-02-17T03:33:28;100792.31;;;10.10;100.00
38718;BME280;24468;52.128;9.278;2023-02-17T03:35:54;100806.03;;;10.04;100.00
38718;BME280;24468;52.128;9.278;2023-02-17T03:38:19;100807.72;;;10.32;100.00
38718;BME280;24468;52.128;9.278;2023-02-17T03:40:45;100802.56;;;10.24;100.00
38718;BME280;24468;52.128;9.278;2023-02-17T03:43:10;100805.34;;;10.46;100.00
38718;BME280;24468;52.128;9.278;2023-02-17T03:45:36;100803.59;;;10.45;100.00
38718;BME280;24468;52.128;9.278;2023-02-17T03:48:03;100797.88;;;10.53;100.00
38718;BME280;24468;52.128;9.278;2023-02-17T03:50:30;100800.19;;;10.40;100.00
38718;BME280;24468;52.128;9.278;2023-02-17T03:52:55;100803.91;;;10.59;100.00
38718;BME280;24468;52.128;9.278;2023-02-17T03:55:21;100783.63;;;10.71;100.00
38718;BME280;24468;52.128;9.278;2023-02-17T03:57:46;100791.34;;;10.58;100.00
38718;BME280;24468;52.128;9.278;2023-02-17T04:00:12;100793.16;;;10.58;100.00
38718;BME280;24468;52.128;9.278;2023-02-17T04:02:38;100792.56;;;10.51;100.00
38718;BME280;24468;52.128;9.278;2023-02-17T04:05:04;100794.41;;;10.25;100.00
38718;BME280;24468;52.128;9.278;2023-02-17T04:07:30;100794.69;;;10.43;100.00
38718;BME280;24468;52.128;9.278;2023-02-17T04:09:55;100793.41;;;10.30;100.00
38718;BME280;24468;52.128;9.278;2023-02-17T04:12:21;100793.81;;;10.64;100.00
38718;BME280;24468;52.128;9.278;2023-02-17T04:14:46;100794.75;;;10.63;100.00
38718;BME280;24468;52.128;9.278;2023-02-17T04:17:12;100788.47;;;10.63;100.00
38718;BME280;24468;52.128;9.278;2023-02-17T04:19:37;100780.50;;;10.60;100.00
38718;BME280;24468;52.128;9.278;2023-02-17T04:22:03;100778.97;;;10.53;100.00
38718;BME280;24468;52.128;9.278;2023-02-17T04:24:34;100774.81;;;10.67;100.00
38718;BME280;24468;52.128;9.278;2023-02-17T04:27:01;100771.78;;;10.53;100.00
38718;BME280;24468;52.128;9.278;2023-02-17T04:29:26;100778.47;;;10.19;100.00
38718;BME280;24468;52.128;9.278;2023-02-17T04:31:52;100769.34;;;10.23;100.00
38718;BME280;24468;52.128;9.278;2023-02-17T04:34:17;100781.53;;;10.34;100.00
38718;BME280;24468;52.128;9.278;2023-02-17T04:36:43;100777.75;;;10.39;100.00
38718;BME280;24468;52.128;9.278;2023-02-17T04:39:08;100781.25;;;10.41;100.00
38718;BME280;24468;52.128;9.278;2023-02-17T04:41:34;100791.69;;;10.51;100.00
38718;BME280;24468;52.128;9.278;2023-02-17T04:43:59;100787.72;;;10.37;100.00
38718;BME280;24468;52.128;9.278;2023-02-17T04:46:25;100793.25;;;10.56;100.00
38718;BME280;24468;52.128;9.278;2023-02-17T04:48:50;100805.38;;;10.44;100.00
38718;BME280;24468;52.128;9.278;2023-02-17T04:51:16;100798.41;;;10.62;100.00
38718;BME280;24468;52.128;9.278;2023-02-17T04:53:41;100774.50;;;10.53;100.00
38718;BME280;24468;52.128;9.278;2023-02-17T04:56:07;100762.88;;;10.73;100.00
38718;BME280;24468;52.128;9.278;2023-02-17T04:58:33;100756.53;;;10.52;100.00
38718;BME280;24468;52.128;9.278;2023-02-17T05:00:59;100756.19;;;10.61;100.00
38718;BME280;24468;52.128;9.278;2023-02-17T05:03:25;100770.72;;;10.57;100.00
38718;BME280;24468;52.128;9.278;2023-02-17T05:05:51;100758.41;;;10.72;100.00
38718;BME280;24468;52.128;9.278;2023-02-17T05:08:16;100771.41;;;10.62;100.00
38718;BME280;24468;52.128;9.278;2023-02-17T05:10:42;100755.59;;;10.75;100.00
38718;BME280;24468;52.128;9.278;2023-02-17T05:13:07;100767.06;;;10.80;100.00
38718;BME280;24468;52.128;9.278;2023-02-17T05:15:33;100753.47;;;10.83;100.00
38718;BME280;24468;52.128;9.278;2023-02-17T05:17:59;100752.81;;;10.77;100.00
38718;BME280;24468;52.128;9.278;2023-02-17T05:20:24;100732.19;;;10.76;100.00
38718;BME280;24468;52.128;9.278;2023-02-17T05:22:50;100724.47;;;10.66;100.00
38718;BME280;24468;52.128;9.278;2023-02-17T05:25:16;100727.25;;;10.85;100.00
38718;BME280;24468;52.128;9.278;2023-02-17T05:27:42;100727.53;;;10.79;100.00
38718;BME280;24468;52.128;9.278;2023-02-17T05:30:08;100724.91;;;10.56;100.00
38718;BME280;24468;52.128;9.278;2023-02-17T05:32:34;100716.19;;;10.49;100.00
38718;BME280;24468;52.128;9.278;2023-02-17T05:34:59;100732.81;;;10.60;100.00
38718;BME280;24468;52.128;9.278;2023-02-17T05:37:25;100725.69;;;10.80;100.00
38718;BME280;24468;52.128;9.278;2023-02-17T05:39:51;100714.19;;;10.97;100.00
38718;BME280;24468;52.128;9.278;2023-02-17T05:42:17;100720.03;;;10.86;100.00
38718;BME280;24468;52.128;9.278;2023-02-17T05:44:42;100721.56;;;10.71;100.00
38718;BME280;24468;52.128;9.278;2023-02-17T05:47:08;100707.34;;;10.67;100.00
38718;BME280;24468;52.128;9.278;2023-02-17T05:49:33;100719.75;;;10.72;100.00
38718;BME280;24468;52.128;9.278;2023-02-17T05:51:59;100710.97;;;10.66;100.00
38718;BME280;24468;52.128;9.278;2023-02-17T05:54:25;100710.28;;;10.83;100.00
38718;BME280;24468;52.128;9.278;2023-02-17T05:56:50;100705.88;;;10.81;100.00
38718;BME280;24468;52.128;9.278;2023-02-17T05:59:16;100718.88;;;10.71;100.00
38718;BME280;24468;52.128;9.278;2023-02-17T06:01:41;100706.31;;;10.92;100.00
38718;BME280;24468;52.128;9.278;2023-02-17T06:04:07;100711.16;;;10.84;100.00
38718;BME280;24468;52.128;9.278;2023-02-17T06:06:32;100700.50;;;10.81;100.00
38718;BME280;24468;52.128;9.278;2023-02-17T06:08:58;100683.47;;;10.79;100.00
38718;BME280;24468;52.128;9.278;2023-02-17T06:11:23;100681.91;;;10.94;100.00
38718;BME280;24468;52.128;9.278;2023-02-17T06:13:49;100682.31;;;11.05;100.00
38718;BME280;24468;52.128;9.278;2023-02-17T06:16:14;100693.41;;;10.99;100.00
38718;BME280;24468;52.128;9.278;2023-02-17T06:18:40;100705.56;;;11.09;100.00
38718;BME280;24468;52.128;9.278;2023-02-17T06:21:06;100689.41;;;10.87;100.00
38718;BME280;24468;52.128;9.278;2023-02-17T06:23:31;100704.28;;;10.97;100.00
38718;BME280;24468;52.128;9.278;2023-02-17T06:25:57;100699.66;;;10.99;100.00
38718;BME280;24468;52.128;9.278;2023-02-17T06:28:22;100704.53;;;10.91;100.00
38718;BME280;24468;52.128;9.278;2023-02-17T06:30:48;100694.97;;;10.84;100.00
38718;BME280;24468;52.128;9.278;2023-02-17T06:33:13;100683.00;;;11.30;100.00
38718;BME280;24468;52.128;9.278;2023-02-17T06:35:39;100678.47;;;11.10;100.00
38718;BME280;24468;52.128;9.278;2023-02-17T06:38:04;100686.31;;;10.76;100.00
38718;BME280;24468;52.128;9.278;2023-02-17T06:40:30;100675.66;;;10.73;100.00
38718;BME280;24468;52.128;9.278;2023-02-17T06:42:55;100679.78;;;10.81;100.00
38718;BME280;24468;52.128;9.278;2023-02-17T06:45:21;100667.56;;;10.73;100.00
38718;BME280;24468;52.128;9.278;2023-02-17T06:47:46;100675.25;;;10.61;100.00
38718;BME280;24468;52.128;9.278;2023-02-17T06:50:12;100667.59;;;10.71;100.00
38718;BME280;24468;52.128;9.278;2023-02-17T06:52:39;100676.94;;;10.84;100.00
38718;BME280;24468;52.128;9.278;2023-02-17T06:55:05;100672.81;;;10.76;100.00
38718;BME280;24468;52.128;9.278;2023-02-17T06:57:30;100692.13;;;10.87;100.00
38718;BME280;24468;52.128;9.278;2023-02-17T06:59:56;100690.19;;;10.68;100.00
38718;BME280;24468;52.128;9.278;2023-02-17T07:02:21;100697.09;;;10.76;100.00
38718;BME280;24468;52.128;9.278;2023-02-17T07:04:47;100683.63;;;10.76;100.00
38718;BME280;24468;52.128;9.278;2023-02-17T07:07:13;100674.44;;;10.80;100.00
38718;BME280;24468;52.128;9.278;2023-02-17T07:09:39;100689.84;;;10.78;100.00
38718;BME280;24468;52.128;9.278;2023-02-17T07:12:05;100679.91;;;10.78;100.00
38718;BME280;24468;52.128;9.278;2023-02-17T07:14:33;100690.28;;;10.87;100.00
38718;BME280;24468;52.128;9.278;2023-02-17T07:16:59;100686.09;;;10.80;100.00
38718;BME280;24468;52.128;9.278;2023-02-17T07:19:25;100686.63;;;10.88;100.00
38718;BME280;24468;52.128;9.278;2023-02-17T07:21:51;100680.38;;;10.67;100.00
38718;BME280;24468;52.128;9.278;2023-02-17T07:24:16;100665.00;;;10.70;100.00
38718;BME280;24468;52.128;9.278;2023-02-17T07:26:42;100650.47;;;10.72;100.00
38718;BME280;24468;52.128;9.278;2023-02-17T07:29:08;100662.63;;;10.62;100.00
38718;BME280;24468;52.128;9.278;2023-02-17T07:31:34;100580.28;;;10.53;100.00
38718;BME280;24468;52.128;9.278;2023-02-17T07:34:01;100661.88;;;10.79;100.00
38718;BME280;24468;52.128;9.278;2023-02-17T07:36:27;100633.41;;;10.72;100.00
38718;BME280;24468;52.128;9.278;2023-02-17T07:38:52;100621.47;;;10.57;100.00
38718;BME280;24468;52.128;9.278;2023-02-17T07:41:21;100639.44;;;10.78;100.00
38718;BME280;24468;52.128;9.278;2023-02-17T07:43:53;100639.63;;;10.74;100.00
38718;BME280;24468;52.128;9.278;2023-02-17T07:46:19;100643.00;;;10.79;100.00
38718;BME280;24468;52.128;9.278;2023-02-17T07:48:45;100633.63;;;10.67;100.00
38718;BME280;24468;52.128;9.278;2023-02-17T07:51:14;100634.91;;;10.79;100.00
38718;BME280;24468;52.128;9.278;2023-02-17T07:53:40;100631.19;;;10.81;100.00
38718;BME280;24468;52.128;9.278;2023-02-17T07:56:09;100627.78;;;10.97;100.00
38718;BME280;24468;52.128;9.278;2023-02-17T07:58:38;100595.47;;;10.75;100.00
38718;BME280;24468;52.128;9.278;2023-02-17T08:01:08;100633.81;;;10.83;100.00
38718;BME280;24468;52.128;9.278;2023-02-17T08:03:34;100633.94;;;10.80;100.00
38718;BME280;24468;52.128;9.278;2023-02-17T08:06:00;100620.25;;;10.84;100.00
38718;BME280;24468;52.128;9.278;2023-02-17T08:08:25;100626.53;;;10.85;100.00
38718;BME280;24468;52.128;9.278;2023-02-17T08:11:15;100639.19;;;10.83;100.00
38718;BME280;24468;52.128;9.278;2023-02-17T08:14:00;100620.53;;;10.78;100.00
38718;BME280;24468;52.128;9.278;2023-02-17T08:16:25;100616.13;;;10.96;100.00
38718;BME280;24468;52.128;9.278;2023-02-17T08:18:52;100625.78;;;11.02;100.00
38718;BME280;24468;52.128;9.278;2023-02-17T08:21:19;100617.28;;;10.90;100.00
38718;BME280;24468;52.128;9.278;2023-02-17T08:23:44;100620.16;;;10.86;100.00
38718;BME280;24468;52.128;9.278;2023-02-17T08:26:10;100611.56;;;10.78;100.00
38718;BME280;24468;52.128;9.278;2023-02-17T08:28:35;100613.84;;;10.66;100.00
38718;BME280;24468;52.128;9.278;2023-02-17T08:31:01;100607.09;;;10.77;100.00
38718;BME280;24468;52.128;9.278;2023-02-17T08:33:27;100607.34;;;10.91;100.00
38718;BME280;24468;52.128;9.278;2023-02-17T08:35:53;100609.44;;;11.63;100.00
38718;BME280;24468;52.128;9.278;2023-02-17T08:38:18;100601.59;;;11.76;100.00
38718;BME280;24468;52.128;9.278;2023-02-17T08:40:44;100614.09;;;11.41;100.00
38718;BME280;24468;52.128;9.278;2023-02-17T08:43:09;100613.91;;;12.02;100.00
38718;BME280;24468;52.128;9.278;2023-02-17T08:45:35;100594.81;;;11.67;100.00
38718;BME280;24468;52.128;9.278;2023-02-17T08:48:03;100601.22;;;11.27;100.00
38718;BME280;24468;52.128;9.278;2023-02-17T08:50:29;100596.56;;;10.91;100.00
38718;BME280;24468;52.128;9.278;2023-02-17T08:52:55;100605.00;;;10.63;100.00
38718;BME280;24468;52.128;9.278;2023-02-17T08:55:21;100609.72;;;10.58;100.00
38718;BME280;24468;52.128;9.278;2023-02-17T08:57:48;100600.03;;;10.95;100.00
38718;BME280;24468;52.128;9.278;2023-02-17T09:00:16;100577.59;;;10.93;100.00
38718;BME280;24468;52.128;9.278;2023-02-17T09:02:42;100603.34;;;10.81;100.00
38718;BME280;24468;52.128;9.278;2023-02-17T09:05:11;100603.72;;;10.92;100.00
38718;BME280;24468;52.128;9.278;2023-02-17T09:07:37;100592.69;;;10.97;100.00
38718;BME280;24468;52.128;9.278;2023-02-17T09:10:07;100592.66;;;10.57;100.00
38718;BME280;24468;52.128;9.278;2023-02-17T09:12:33;100592.59;;;10.79;100.00
38718;BME280;24468;52.128;9.278;2023-02-17T09:14:59;100592.88;;;10.73;100.00
38718;BME280;24468;52.128;9.278;2023-02-17T09:17:25;100600.75;;;10.98;100.00
38718;BME280;24468;52.128;9.278;2023-02-17T09:19:50;100616.69;;;10.84;100.00
38718;BME280;24468;52.128;9.278;2023-02-17T09:22:16;100605.81;;;10.65;100.00
38718;BME280;24468;52.128;9.278;2023-02-17T09:24:45;100629.56;;;10.77;100.00
38718;BME280;24468;52.128;9.278;2023-02-17T09:27:10;100613.50;;;10.95;100.00
38718;BME280;24468;52.128;9.278;2023-02-17T09:29:37;100607.53;;;11.07;100.00
38718;BME280;24468;52.128;9.278;2023-02-17T09:32:07;100619.25;;;10.87;100.00
38718;BME280;24468;52.128;9.278;2023-02-17T09:34:37;100605.66;;;10.88;100.00
38718;BME280;24468;52.128;9.278;2023-02-17T09:37:03;100613.22;;;10.80;100.00
38718;BME280;24468;52.128;9.278;2023-02-17T09:39:34;100611.22;;;10.65;100.00
38718;BME280;24468;52.128;9.278;2023-02-17T09:41:59;100606.63;;;11.08;100.00
38718;BME280;24468;52.128;9.278;2023-02-17T09:44:36;100612.31;;;10.81;100.00
38718;BME280;24468;52.128;9.278;2023-02-17T09:47:13;100610.34;;;11.05;100.00
38718;BME280;24468;52.128;9.278;2023-02-17T09:49:45;100603.00;;;11.07;100.00
38718;BME280;24468;52.128;9.278;2023-02-17T09:55:47;100616.78;;;11.22;100.00
38718;BME280;24468;52.128;9.278;2023-02-17T09:58:40;100615.16;;;11.18;100.00
38718;BME280;24468;52.128;9.278;2023-02-17T10:01:15;100621.31;;;11.01;100.00
38718;BME280;24468;52.128;9.278;2023-02-17T10:04:01;100635.06;;;11.15;100.00
38718;BME280;24468;52.128;9.278;2023-02-17T10:07:24;100623.69;;;11.08;100.00
38718;BME280;24468;52.128;9.278;2023-02-17T10:10:08;100588.53;;;11.29;100.00
38718;BME280;24468;52.128;9.278;2023-02-17T10:12:43;100572.25;;;11.11;100.00
38718;BME280;24468;52.128;9.278;2023-02-17T10:15:14;100588.97;;;11.20;100.00
38718;BME280;24468;52.128;9.278;2023-02-17T10:18:04;100588.53;;;11.29;100.00
38718;BME280;24468;52.128;9.278;2023-02-17T10:20:47;100586.94;;;11.25;100.00
38718;BME280;24468;52.128;9.278;2023-02-17T10:23:26;100543.06;;;11.20;100.00
38718;BME280;24468;52.128;9.278;2023-02-17T10:29:18;100574.72;;;11.35;100.00
38718;BME280;24468;52.128;9.278;2023-02-17T10:32:19;100582.06;;;11.33;100.00
38718;BME280;24468;52.128;9.278;2023-02-17T10:39:57;100565.31;;;11.63;100.00
38718;BME280;24468;52.128;9.278;2023-02-17T10:42:37;100567.88;;;11.66;100.00
38718;BME280;24468;52.128;9.278;2023-02-17T10:47:40;100541.38;;;11.74;100.00
38718;BME280;24468;52.128;9.278;2023-02-17T10:50:18;100556.13;;;11.86;100.00
38718;BME280;24468;52.128;9.278;2023-02-17T10:52:45;100539.94;;;11.84;100.00
38718;BME280;24468;52.128;9.278;2023-02-17T10:58:13;100540.78;;;11.86;100.00
38718;BME280;24468;52.128;9.278;2023-02-17T11:00:41;100527.09;;;11.89;100.00
38718;BME280;24468;52.128;9.278;2023-02-17T11:03:23;100514.19;;;12.13;100.00
38718;BME280;24468;52.128;9.278;2023-02-17T11:05:55;100513.47;;;12.27;100.00
38718;BME280;24468;52.128;9.278;2023-02-17T11:08:48;100524.84;;;12.51;100.00
38718;BME280;24468;52.128;9.278;2023-02-17T11:11:29;100509.06;;;12.42;100.00
38718;BME280;24468;52.128;9.278;2023-02-17T11:16:46;100459.72;;;12.54;100.00
38718;BME280;24468;52.128;9.278;2023-02-17T11:19:26;100473.59;;;12.48;100.00
38718;BME280;24468;52.128;9.278;2023-02-17T11:21:56;100480.97;;;12.62;100.00
38718;BME280;24468;52.128;9.278;2023-02-17T11:24:24;100477.22;;;12.64;100.00
38718;BME280;24468;52.128;9.278;2023-02-17T11:27:10;100488.09;;;12.96;100.00
38718;BME280;24468;52.128;9.278;2023-02-17T11:29:36;100450.78;;;12.85;100.00
38718;BME280;24468;52.128;9.278;2023-02-17T11:32:05;100494.97;;;13.19;100.00
38718;BME280;24468;52.128;9.278;2023-02-17T11:34:37;100468.56;;;13.07;100.00
38718;BME280;24468;52.128;9.278;2023-02-17T11:39:46;100477.00;;;13.66;100.00
38718;BME280;24468;52.128;9.278;2023-02-17T11:42:28;100475.63;;;13.89;100.00
38718;BME280;24468;52.128;9.278;2023-02-17T11:44:57;100488.72;;;13.66;100.00
38718;BME280;24468;52.128;9.278;2023-02-17T11:47:52;100473.41;;;13.33;100.00
38718;BME280;24468;52.128;9.278;2023-02-17T11:56:21;100448.84;;;13.37;100.00
38718;BME280;24468;52.128;9.278;2023-02-17T12:02:16;100453.13;;;13.41;100.00
38718;BME280;24468;52.128;9.278;2023-02-17T12:08:00;100464.84;;;13.41;100.00
38718;BME280;24468;52.128;9.278;2023-02-17T12:13:42;100465.53;;;13.29;100.00
38718;BME280;24468;52.128;9.278;2023-02-17T12:16:30;100464.50;;;13.31;100.00
38718;BME280;24468;52.128;9.278;2023-02-17T12:22:16;100430.28;;;13.13;100.00
38718;BME280;24468;52.128;9.278;2023-02-17T12:25:21;100453.47;;;13.34;100.00
38718;BME280;24468;52.128;9.278;2023-02-17T12:28:33;100452.59;;;13.66;100.00
38718;BME280;24468;52.128;9.278;2023-02-17T12:34:24;100460.75;;;13.34;100.00
38718;BME280;24468;52.128;9.278;2023-02-17T12:36:55;100452.09;;;13.89;100.00
38718;BME280;24468;52.128;9.278;2023-02-17T12:39:40;100479.78;;;13.64;100.00
38718;BME280;24468;52.128;9.278;2023-02-17T12:42:25;100464.56;;;13.46;100.00
38718;BME280;24468;52.128;9.278;2023-02-17T12:44:56;100504.97;;;13.34;100.00
38718;BME280;24468;52.128;9.278;2023-02-17T12:47:52;100482.25;;;13.37;100.00
38718;BME280;24468;52.128;9.278;2023-02-17T12:50:37;100470.97;;;13.45;100.00
38718;BME280;24468;52.128;9.278;2023-02-17T12:53:46;100457.63;;;13.24;100.00
38718;BME280;24468;52.128;9.278;2023-02-17T12:58:51;100455.25;;;13.02;100.00
38718;BME280;24468;52.128;9.278;2023-02-17T13:01:19;100471.09;;;13.10;100.00
38718;BME280;24468;52.128;9.278;2023-02-17T13:03:46;100457.66;;;13.08;100.00
38718;BME280;24468;52.128;9.278;2023-02-17T13:06:38;100457.81;;;12.89;100.00
38718;BME280;24468;52.128;9.278;2023-02-17T13:09:33;100492.03;;;12.90;100.00
38718;BME280;24468;52.128;9.278;2023-02-17T13:17:37;100484.59;;;12.94;100.00
38718;BME280;24468;52.128;9.278;2023-02-17T13:20:36;100472.22;;;12.90;100.00
38718;BME280;24468;52.128;9.278;2023-02-17T13:23:09;100485.13;;;12.85;100.00
38718;BME280;24468;52.128;9.278;2023-02-17T13:25:36;100466.00;;;12.88;100.00
38718;BME280;24468;52.128;9.278;2023-02-17T13:28:16;100493.19;;;12.86;100.00
38718;BME280;24468;52.128;9.278;2023-02-17T13:30:44;100490.59;;;12.83;100.00
38718;BME280;24468;52.128;9.278;2023-02-17T13:35:45;100527.28;;;12.73;100.00
38718;BME280;24468;52.128;9.278;2023-02-17T13:38:11;100512.47;;;12.63;100.00
38718;BME280;24468;52.128;9.278;2023-02-17T13:40:40;100527.34;;;12.72;100.00
38718;BME280;24468;52.128;9.278;2023-02-17T13:43:18;100576.56;;;12.62;100.00
38718;BME280;24468;52.128;9.278;2023-02-17T13:45:48;100550.69;;;12.39;100.00
38718;BME280;24468;52.128;9.278;2023-02-17T13:53:36;100583.84;;;12.26;100.00
38718;BME280;24468;52.128;9.278;2023-02-17T13:56:27;100566.09;;;12.20;100.00
38718;BME280;24468;52.128;9.278;2023-02-17T13:58:53;100561.13;;;12.30;100.00
38718;BME280;24468;52.128;9.278;2023-02-17T14:01:24;100548.13;;;12.01;100.00
38718;BME280;24468;52.128;9.278;2023-02-17T14:03:54;100562.69;;;12.16;100.00
38718;BME280;24468;52.128;9.278;2023-02-17T14:06:35;100561.50;;;12.05;100.00
38718;BME280;24468;52.128;9.278;2023-02-17T14:09:29;100558.69;;;12.06;100.00
38718;BME280;24468;52.128;9.278;2023-02-17T14:11:56;100549.97;;;12.18;100.00
38718;BME280;24468;52.128;9.278;2023-02-17T14:14:30;100565.53;;;11.96;100.00
38718;BME280;24468;52.128;9.278;2023-02-17T14:19:47;100557.75;;;12.07;100.00